Time;durP1;ratioP1;P1;durP2;ratioP2;P2;SDS_P1;SDS_P2;PMS_P1;PMS_P2;Temp;Humidity;BMP_temperature;BMP_pressure;BME280_temperature;BME280_humidity;BME280_pressure;Samples;Min_cycle;Max_cycle;Signal;HPM_P1;HPM_P2
2022/04/14 00:00:35;;;;;;;60.70;32.60;;;;;;;;;;5064183;28;20037;-82
2022/04/14 00:03:02;;;;;;;62.45;34.15;;;;;;;;;;5062723;28;20090;-80
2022/04/14 00:05:28;;;;;;;57.70;33.97;;;;;;;;;;5063436;28;20037;-81
2022/04/14 00:07:54;;;;;;;54.05;31.98;;;;;;;;;;5067897;28;20099;-81
2022/04/14 00:10:20;;;;;;;59.78;33.08;;;;;;;;;;5068546;28;20051;-81
2022/04/14 00:12:48;;;;;;;68.40;34.42;;;;;;;;;;5057708;28;20112;-81
2022/04/14 00:15:14;;;;;;;57.17;34.05;;;;;;;;;;5038846;28;20107;-81
2022/04/14 00:17:40;;;;;;;57.33;33.30;;;;;;;;;;5071130;28;20036;-80
2022/04/14 00:20:08;;;;;;;58.95;32.45;;;;;;;;;;5070231;28;20029;-80
2022/04/14 00:22:35;;;;;;;55.33;32.80;;;;;;;;;;5073701;28;20048;-81
2022/04/14 00:25:01;;;;;;;57.60;33.72;;;;;;;;;;5071665;28;20379;-80
2022/04/14 00:27:27;;;;;;;57.67;32.58;;;;;;;;;;5057064;28;20020;-81
2022/04/14 00:29:53;;;;;;;53.88;32.03;;;;;;;;;;5054858;28;20037;-81
2022/04/14 00:32:19;;;;;;;52.75;31.40;;;;;;;;;;5038259;28;20036;-82
2022/04/14 00:34:45;;;;;;;56.53;32.50;;;;;;;;;;5066893;28;20108;-82
2022/04/14 00:37:11;;;;;;;55.03;32.75;;;;;;;;;;5068421;28;20123;-82
2022/04/14 00:39:40;;;;;;;54.97;32.03;;;;;;;;;;5062242;28;20098;-81
2022/04/14 00:42:10;;;;;;;58.95;33.70;;;;;;;;;;5056417;28;20029;-80
2022/04/14 00:44:36;;;;;;;66.90;33.72;;;;;;;;;;5055664;28;20083;-81
2022/04/14 00:47:02;;;;;;;56.47;31.52;;;;;;;;;;5061466;28;20076;-81
2022/04/14 00:49:28;;;;;;;58.03;32.75;;;;;;;;;;5071397;28;20040;-80
2022/04/14 00:51:54;;;;;;;55.88;32.20;;;;;;;;;;5073024;28;20044;-81
2022/04/14 00:54:20;;;;;;;56.05;31.40;;;;;;;;;;5066949;28;20032;-81
2022/04/14 00:56:46;;;;;;;54.33;31.30;;;;;;;;;;5058698;28;20491;-82
2022/04/14 00:59:13;;;;;;;61.83;31.60;;;;;;;;;;5059102;28;20040;-82
2022/04/14 01:01:39;;;;;;;54.97;29.70;;;;;;;;;;5062363;28;20033;-82
2022/04/14 01:04:05;;;;;;;50.55;29.27;;;;;;;;;;5059042;28;20478;-80
2022/04/14 01:06:31;;;;;;;47.17;29.65;;;;;;;;;;5069391;28;20033;-81
2022/04/14 01:11:42;;;;;;;52.28;30.00;;;;;;;;;;5053607;28;20234;-81
2022/04/14 01:14:08;;;;;;;51.78;27.77;;;;;;;;;;5060979;28;20190;-81
2022/04/14 01:16:34;;;;;;;52.13;28.83;;;;;;;;;;5072091;28;20183;-81
2022/04/14 01:19:00;;;;;;;52.70;30.13;;;;;;;;;;5061720;28;20112;-80
2022/04/14 01:21:33;;;;;;;48.33;29.35;;;;;;;;;;5067236;28;20153;-81
2022/04/14 01:23:59;;;;;;;57.65;31.25;;;;;;;;;;5058773;28;20024;-81
2022/04/14 01:26:25;;;;;;;54.65;31.15;;;;;;;;;;5073933;28;20039;-81
2022/04/14 01:28:51;;;;;;;55.05;31.63;;;;;;;;;;5065728;28;20032;-81
2022/04/14 01:31:17;;;;;;;53.45;31.73;;;;;;;;;;5055209;28;20098;-82
2022/04/14 01:33:43;;;;;;;55.03;32.35;;;;;;;;;;5056490;28;20111;-82
2022/04/14 01:36:09;;;;;;;59.42;32.95;;;;;;;;;;5045585;28;20017;-81
2022/04/14 01:38:38;;;;;;;59.20;33.90;;;;;;;;;;5068642;28;20036;-83
2022/04/14 01:41:04;;;;;;;65.32;34.78;;;;;;;;;;5054431;28;20111;-81
2022/04/14 01:43:30;;;;;;;63.58;35.25;;;;;;;;;;5055863;28;20480;-82
2022/04/14 01:45:56;;;;;;;64.88;35.40;;;;;;;;;;5060823;28;20486;-81
2022/04/14 01:48:22;;;;;;;64.13;35.92;;;;;;;;;;5068490;28;20059;-82
2022/04/14 01:50:49;;;;;;;66.63;34.10;;;;;;;;;;5069858;28;20049;-83
2022/04/14 01:53:15;;;;;;;64.07;34.42;;;;;;;;;;5065986;28;20029;-83
2022/04/14 01:55:41;;;;;;;65.10;37.13;;;;;;;;;;5068066;28;20078;-81
2022/04/14 01:58:07;;;;;;;64.00;36.22;;;;;;;;;;5067063;28;20060;-80
2022/04/14 02:00:33;;;;;;;65.60;37.65;;;;;;;;;;5050176;28;20077;-82
2022/04/14 02:02:59;;;;;;;70.07;38.65;;;;;;;;;;5052770;28;20444;-81
2022/04/14 02:05:25;;;;;;;67.65;38.20;;;;;;;;;;5063289;28;20119;-80
2022/04/14 02:07:51;;;;;;;77.90;38.65;;;;;;;;;;5062024;28;20064;-80
2022/04/14 02:10:17;;;;;;;77.60;40.55;;;;;;;;;;5065254;28;20037;-80
2022/04/14 02:12:45;;;;;;;79.75;41.15;;;;;;;;;;5065701;28;20033;-80
2022/04/14 02:15:12;;;;;;;92.80;43.85;;;;;;;;;;5064540;28;20482;-82
2022/04/14 02:17:38;;;;;;;80.25;41.60;;;;;;;;;;5054542;28;20098;-81
2022/04/14 02:20:05;;;;;;;80.75;42.55;;;;;;;;;;5052287;28;20037;-81
2022/04/14 02:22:37;;;;;;;84.68;43.22;;;;;;;;;;5054996;28;20116;-81
2022/04/14 02:25:03;;;;;;;96.03;47.00;;;;;;;;;;5063258;28;20033;-81
2022/04/14 02:27:29;;;;;;;92.00;46.13;;;;;;;;;;5060388;28;20068;-81
2022/04/14 02:29:55;;;;;;;97.07;48.08;;;;;;;;;;5069007;28;20040;-81
2022/04/14 02:32:21;;;;;;;96.55;48.38;;;;;;;;;;5054888;28;20071;-81
2022/04/14 02:34:47;;;;;;;90.20;47.55;;;;;;;;;;5035657;28;20020;-81
2022/04/14 02:37:13;;;;;;;84.97;46.10;;;;;;;;;;5061858;28;20041;-81
2022/04/14 02:39:40;;;;;;;85.63;45.65;;;;;;;;;;5058406;28;20033;-81
2022/04/14 02:42:06;;;;;;;86.60;44.53;;;;;;;;;;5066761;28;20029;-81
2022/04/14 02:44:32;;;;;;;82.57;45.30;;;;;;;;;;5071079;28;20074;-81
2022/04/14 02:46:59;;;;;;;91.72;46.63;;;;;;;;;;5072976;28;20040;-81
2022/04/14 02:49:25;;;;;;;93.93;49.20;;;;;;;;;;5072871;28;20115;-81
2022/04/14 02:51:51;;;;;;;91.68;46.40;;;;;;;;;;5027232;28;20514;-81
2022/04/14 02:54:17;;;;;;;96.13;48.80;;;;;;;;;;5046389;28;20043;-81
2022/04/14 02:56:43;;;;;;;100.88;49.95;;;;;;;;;;5050990;28;20045;-81
2022/04/14 02:59:09;;;;;;;97.28;48.45;;;;;;;;;;5041487;28;20121;-82
2022/04/14 03:01:35;;;;;;;106.15;50.00;;;;;;;;;;5024832;28;20096;-82
2022/04/14 03:04:01;;;;;;;110.18;52.95;;;;;;;;;;5041899;28;20048;-80
2022/04/14 03:06:27;;;;;;;106.60;52.58;;;;;;;;;;5046331;28;20348;-80
2022/04/14 03:08:53;;;;;;;102.82;50.88;;;;;;;;;;5053485;28;20466;-80
2022/04/14 03:11:19;;;;;;;108.30;53.50;;;;;;;;;;5042929;28;20136;-82
2022/04/14 03:13:45;;;;;;;111.57;52.67;;;;;;;;;;5044446;28;20029;-81
2022/04/14 03:16:13;;;;;;;106.60;50.58;;;;;;;;;;5056432;28;20094;-81
2022/04/14 03:18:39;;;;;;;120.75;55.78;;;;;;;;;;5052764;28;20027;-81
2022/04/14 03:21:05;;;;;;;113.93;53.22;;;;;;;;;;5037169;28;20065;-80
2022/04/14 03:23:31;;;;;;;113.93;53.75;;;;;;;;;;5054575;28;20029;-80
2022/04/14 03:25:57;;;;;;;120.63;54.15;;;;;;;;;;5053633;28;20037;-80
2022/04/14 03:28:23;;;;;;;110.80;53.10;;;;;;;;;;5047307;28;20044;-81
2022/04/14 03:30:49;;;;;;;112.90;53.47;;;;;;;;;;5042013;28;20033;-81
2022/04/14 03:33:15;;;;;;;111.60;53.80;;;;;;;;;;5040066;28;20036;-80
2022/04/14 03:35:41;;;;;;;116.13;54.05;;;;;;;;;;5049969;28;20036;-80
2022/04/14 03:38:07;;;;;;;120.68;55.70;;;;;;;;;;5046434;28;20482;-82
2022/04/14 03:40:34;;;;;;;133.98;60.78;;;;;;;;;;5042144;28;20059;-82
2022/04/14 03:43:00;;;;;;;127.40;59.10;;;;;;;;;;5039125;28;20115;-80
2022/04/14 03:45:26;;;;;;;144.65;64.57;;;;;;;;;;5035235;28;20033;-82
2022/04/14 03:47:52;;;;;;;145.50;63.42;;;;;;;;;;5047492;28;20032;-81
2022/04/14 03:50:18;;;;;;;172.82;74.30;;;;;;;;;;5042076;28;20030;-81
2022/04/14 03:52:44;;;;;;;141.48;65.40;;;;;;;;;;5044291;28;20131;-83
2022/04/14 03:55:10;;;;;;;164.40;74.55;;;;;;;;;;5057698;28;20068;-81
2022/04/14 03:57:36;;;;;;;169.93;73.32;;;;;;;;;;5057069;28;20037;-81
2022/04/14 04:00:03;;;;;;;167.80;72.38;;;;;;;;;;5069928;28;20033;-81
2022/04/14 04:02:29;;;;;;;147.63;68.47;;;;;;;;;;5077332;28;20039;-81
2022/04/14 04:04:55;;;;;;;166.95;72.47;;;;;;;;;;5065021;28;20103;-81
2022/04/14 04:07:21;;;;;;;166.55;71.13;;;;;;;;;;5043091;28;20068;-82
2022/04/14 04:09:47;;;;;;;186.48;75.80;;;;;;;;;;5040194;28;20076;-80
2022/04/14 04:12:13;;;;;;;167.98;73.07;;;;;;;;;;5073333;28;20052;-80
2022/04/14 04:14:39;;;;;;;173.65;76.43;;;;;;;;;;5058199;28;20057;-81
2022/04/14 04:17:05;;;;;;;185.48;79.75;;;;;;;;;;5052869;28;20466;-82
2022/04/14 04:19:32;;;;;;;189.07;81.35;;;;;;;;;;5063728;28;20074;-82
2022/04/14 04:21:58;;;;;;;195.48;80.43;;;;;;;;;;5073048;28;20454;-81
2022/04/14 04:24:24;;;;;;;167.68;74.55;;;;;;;;;;5052890;28;20119;-80
2022/04/14 04:26:50;;;;;;;160.07;71.15;;;;;;;;;;5053087;28;20113;-80
2022/04/14 04:29:16;;;;;;;152.05;68.25;;;;;;;;;;5045062;28;20029;-80
2022/04/14 04:31:42;;;;;;;147.70;66.18;;;;;;;;;;5072729;28;20076;-82
2022/04/14 04:34:08;;;;;;;153.05;67.43;;;;;;;;;;5040740;28;20171;-81
2022/04/14 04:36:34;;;;;;;137.10;63.20;;;;;;;;;;5057878;28;20248;-81
2022/04/14 04:39:01;;;;;;;137.07;64.57;;;;;;;;;;5059046;28;20032;-80
2022/04/14 04:41:28;;;;;;;127.43;59.42;;;;;;;;;;5066875;28;20080;-80
2022/04/14 04:43:54;;;;;;;132.52;59.70;;;;;;;;;;5062221;28;20035;-81
2022/04/14 04:46:20;;;;;;;146.60;62.00;;;;;;;;;;5054241;28;20037;-80
2022/04/14 04:48:46;;;;;;;129.52;61.25;;;;;;;;;;5044238;28;20021;-81
2022/04/14 04:51:12;;;;;;;133.15;61.55;;;;;;;;;;5058433;28;20056;-80
2022/04/14 04:53:38;;;;;;;150.70;64.40;;;;;;;;;;5065915;28;20024;-81
2022/04/14 04:56:05;;;;;;;133.23;58.72;;;;;;;;;;5039135;28;20032;-82
2022/04/14 04:58:31;;;;;;;116.20;55.45;;;;;;;;;;5059117;28;20730;-82
2022/04/14 05:00:57;;;;;;;131.68;60.60;;;;;;;;;;5040568;28;20039;-80
2022/04/14 05:03:23;;;;;;;135.80;61.95;;;;;;;;;;5052152;28;20040;-81
2022/04/14 05:05:49;;;;;;;139.30;59.58;;;;;;;;;;5056877;28;20432;-83
2022/04/14 05:08:16;;;;;;;125.60;60.60;;;;;;;;;;5050854;28;20037;-79
2022/04/14 05:10:43;;;;;;;144.00;63.55;;;;;;;;;;5052871;28;20021;-80
2022/04/14 05:13:09;;;;;;;149.75;65.57;;;;;;;;;;5051931;28;20164;-82
2022/04/14 05:15:36;;;;;;;134.88;62.22;;;;;;;;;;5054557;28;20137;-81
2022/04/14 05:18:02;;;;;;;122.03;58.38;;;;;;;;;;5057909;28;20103;-82
2022/04/14 05:20:28;;;;;;;152.23;70.68;;;;;;;;;;5042544;28;20115;-82
2022/04/14 05:22:54;;;;;;;179.82;78.30;;;;;;;;;;5056844;28;20395;-81
2022/04/14 05:25:20;;;;;;;178.35;79.40;;;;;;;;;;5051476;28;20507;-78
2022/04/14 05:27:46;;;;;;;175.95;79.35;;;;;;;;;;5056904;28;20048;-85
2022/04/14 05:30:12;;;;;;;156.65;73.60;;;;;;;;;;5059468;28;20029;-81
2022/04/14 05:32:38;;;;;;;131.13;65.93;;;;;;;;;;5066116;28;20185;-81
2022/04/14 05:35:07;;;;;;;117.00;62.80;;;;;;;;;;5041132;28;20090;-84
2022/04/14 05:37:33;;;;;;;105.65;56.95;;;;;;;;;;5060579;28;20135;-80
2022/04/14 05:39:59;;;;;;;89.65;50.88;;;;;;;;;;5055319;28;20131;-80
2022/04/14 05:42:25;;;;;;;81.43;49.33;;;;;;;;;;5054270;28;20076;-80
2022/04/14 05:44:52;;;;;;;75.32;45.33;;;;;;;;;;5045929;28;20372;-81
2022/04/14 05:47:23;;;;;;;65.85;42.08;;;;;;;;;;5062837;28;20025;-80
2022/04/14 05:49:50;;;;;;;59.72;38.10;;;;;;;;;;5041144;28;20041;-81
2022/04/14 05:52:16;;;;;;;59.15;35.85;;;;;;;;;;5056234;28;20122;-82
2022/04/14 05:54:42;;;;;;;54.58;33.70;;;;;;;;;;5071375;28;20032;-81
2022/04/14 05:57:08;;;;;;;46.47;31.48;;;;;;;;;;5050683;28;20071;-82
2022/04/14 05:59:34;;;;;;;46.83;31.35;;;;;;;;;;5059992;28;20036;-82
2022/04/14 06:02:00;;;;;;;48.60;28.63;;;;;;;;;;5065612;28;20231;-81
2022/04/14 06:04:26;;;;;;;41.33;27.85;;;;;;;;;;5064337;28;20055;-80
2022/04/14 06:06:52;;;;;;;45.42;28.02;;;;;;;;;;5040479;28;20036;-82
2022/04/14 06:09:20;;;;;;;44.13;28.50;;;;;;;;;;5060541;28;20464;-86
2022/04/14 06:12:05;;;;;;;42.53;27.70;;;;;;;;;;5064111;28;20040;-83
2022/04/14 06:14:33;;;;;;;40.78;26.20;;;;;;;;;;5045767;28;20078;-85
2022/04/14 06:16:59;;;;;;;35.95;24.02;;;;;;;;;;5064680;28;20051;-85
2022/04/14 06:19:25;;;;;;;38.45;23.95;;;;;;;;;;5065274;28;20434;-85
2022/04/14 06:21:51;;;;;;;34.60;21.95;;;;;;;;;;5049226;28;20131;-84
2022/04/14 06:24:17;;;;;;;34.60;21.13;;;;;;;;;;5056394;28;20056;-83
2022/04/14 06:26:43;;;;;;;33.20;21.23;;;;;;;;;;5037754;28;20078;-82
2022/04/14 06:29:09;;;;;;;29.67;20.73;;;;;;;;;;5061557;28;20037;-81
2022/04/14 06:31:37;;;;;;;34.17;19.58;;;;;;;;;;5070185;28;20572;-83
2022/04/14 06:34:03;;;;;;;26.85;18.50;;;;;;;;;;5054418;28;20044;-82
2022/04/14 06:36:29;;;;;;;29.20;18.65;;;;;;;;;;5057891;28;20029;-85
2022/04/14 06:38:55;;;;;;;31.17;19.63;;;;;;;;;;5055573;28;20056;-83
2022/04/14 06:41:21;;;;;;;31.92;21.35;;;;;;;;;;5053620;28;20025;-83
2022/04/14 06:43:49;;;;;;;36.08;21.25;;;;;;;;;;5052650;28;20029;-83
2022/04/14 06:46:15;;;;;;;30.80;20.45;;;;;;;;;;5052722;28;20109;-85
2022/04/14 06:48:41;;;;;;;39.00;20.75;;;;;;;;;;5053717;28;20069;-83
2022/04/14 06:51:07;;;;;;;34.58;21.42;;;;;;;;;;5072603;28;20340;-83
2022/04/14 06:53:34;;;;;;;28.13;19.83;;;;;;;;;;5071732;28;20148;-83
2022/04/14 06:56:00;;;;;;;33.47;18.90;;;;;;;;;;5044571;28;20029;-85
2022/04/14 06:58:26;;;;;;;28.65;18.40;;;;;;;;;;5052686;28;20073;-84
2022/04/14 07:00:52;;;;;;;34.30;19.92;;;;;;;;;;5071334;28;20029;-82
2022/04/14 07:03:21;;;;;;;30.63;18.70;;;;;;;;;;5065451;28;20390;-83
2022/04/14 07:05:47;;;;;;;26.40;17.35;;;;;;;;;;5060978;28;20063;-85
2022/04/14 07:08:13;;;;;;;29.95;18.02;;;;;;;;;;5072478;28;20032;-82
2022/04/14 07:10:40;;;;;;;33.10;18.92;;;;;;;;;;5070989;28;20075;-82
2022/04/14 07:13:06;;;;;;;31.52;17.90;;;;;;;;;;5078263;28;20051;-82
2022/04/14 07:15:32;;;;;;;30.92;17.10;;;;;;;;;;5067054;28;20079;-84
2022/04/14 07:18:00;;;;;;;28.80;16.70;;;;;;;;;;5062542;28;20337;-85
2022/04/14 07:20:29;;;;;;;31.27;17.98;;;;;;;;;;5060722;28;20033;-83
2022/04/14 07:22:58;;;;;;;28.38;17.60;;;;;;;;;;5064367;28;20120;-82
2022/04/14 07:25:24;;;;;;;33.15;18.50;;;;;;;;;;5078413;28;20559;-83
2022/04/14 07:27:50;;;;;;;27.85;16.98;;;;;;;;;;5073929;28;20036;-82
2022/04/14 07:30:18;;;;;;;28.88;17.60;;;;;;;;;;5072660;28;20517;-84
2022/04/14 07:32:45;;;;;;;25.70;16.92;;;;;;;;;;5059600;28;20435;-84
2022/04/14 07:35:12;;;;;;;32.08;17.83;;;;;;;;;;5059868;28;20102;-85
2022/04/14 07:37:38;;;;;;;31.80;17.80;;;;;;;;;;5061014;28;20033;-85
2022/04/14 07:40:08;;;;;;;28.75;17.20;;;;;;;;;;5055115;28;20051;-85
2022/04/14 07:42:38;;;;;;;27.88;17.50;;;;;;;;;;5070027;28;20032;-84
2022/04/14 07:45:23;;;;;;;27.40;16.15;;;;;;;;;;5078409;28;20029;-85
2022/04/14 07:47:49;;;;;;;27.17;16.15;;;;;;;;;;5059200;28;20469;-83
2022/04/14 07:50:16;;;;;;;27.20;17.48;;;;;;;;;;5060400;28;20025;-84
2022/04/14 07:52:46;;;;;;;31.90;16.05;;;;;;;;;;5064753;28;20060;-86
2022/04/14 07:55:17;;;;;;;27.73;16.57;;;;;;;;;;5057941;28;20484;-84
2022/04/14 07:57:43;;;;;;;24.73;16.35;;;;;;;;;;5070408;28;20032;-84
2022/04/14 08:00:09;;;;;;;28.85;16.35;;;;;;;;;;5058450;28;20576;-83
2022/04/14 08:02:35;;;;;;;27.48;16.35;;;;;;;;;;5072161;28;20029;-83
2022/04/14 08:05:01;;;;;;;26.38;15.07;;;;;;;;;;5049358;28;20064;-84
2022/04/14 08:07:27;;;;;;;24.73;15.23;;;;;;;;;;5066254;28;20041;-84
2022/04/14 08:09:53;;;;;;;25.35;15.27;;;;;;;;;;5041123;28;20490;-85
2022/04/14 08:12:19;;;;;;;25.60;15.73;;;;;;;;;;5038465;28;20194;-84
2022/04/14 08:14:45;;;;;;;25.88;14.80;;;;;;;;;;5055439;28;20045;-84
2022/04/14 08:17:11;;;;;;;26.02;14.65;;;;;;;;;;5067751;28;20131;-84
2022/04/14 08:19:40;;;;;;;23.88;14.55;;;;;;;;;;5049065;28;20036;-84
2022/04/14 08:22:06;;;;;;;23.27;14.48;;;;;;;;;;5046739;28;20029;-84
2022/04/14 08:24:34;;;;;;;20.65;12.55;;;;;;;;;;5062120;28;20037;-83
2022/04/14 08:27:00;;;;;;;24.90;13.05;;;;;;;;;;5079238;28;20128;-85
2022/04/14 08:29:26;;;;;;;27.00;14.68;;;;;;;;;;5077595;28;20052;-84
2022/04/14 08:31:52;;;;;;;21.70;12.38;;;;;;;;;;5044627;28;20036;-83
2022/04/14 08:34:21;;;;;;;26.17;13.55;;;;;;;;;;5063180;28;20187;-86
2022/04/14 08:36:47;;;;;;;22.23;11.98;;;;;;;;;;5057725;28;20450;-82
2022/04/14 08:39:13;;;;;;;22.70;13.10;;;;;;;;;;5041736;28;20040;-84
2022/04/14 08:41:40;;;;;;;22.52;12.65;;;;;;;;;;5059651;28;20432;-82
2022/04/14 08:44:09;;;;;;;21.52;12.52;;;;;;;;;;5070737;28;20041;-85
2022/04/14 08:46:35;;;;;;;23.63;11.98;;;;;;;;;;5062584;28;20485;-86
2022/04/14 08:49:01;;;;;;;19.92;11.52;;;;;;;;;;5040760;28;20025;-85
2022/04/14 08:51:29;;;;;;;21.27;11.27;;;;;;;;;;5048579;28;20437;-84
2022/04/14 08:53:56;;;;;;;26.02;10.60;;;;;;;;;;5043748;28;20336;-84
2022/04/14 08:56:24;;;;;;;16.42;9.88;;;;;;;;;;5021998;28;20541;-84
2022/04/14 08:59:08;;;;;;;15.43;10.10;;;;;;;;;;5037305;28;20061;-85
2022/04/14 09:01:35;;;;;;;16.20;10.38;;;;;;;;;;5038106;28;20092;-86
2022/04/14 09:04:01;;;;;;;15.05;9.60;;;;;;;;;;5037884;28;20041;-86
2022/04/14 09:06:30;;;;;;;15.70;9.20;;;;;;;;;;5039104;28;20087;-85
2022/04/14 09:08:57;;;;;;;18.08;9.38;;;;;;;;;;5042170;28;20017;-85
2022/04/14 09:11:24;;;;;;;16.63;8.98;;;;;;;;;;5053441;28;20005;-82
2022/04/14 09:13:50;;;;;;;19.58;8.85;;;;;;;;;;5045697;28;20115;-85
2022/04/14 09:16:17;;;;;;;14.57;8.32;;;;;;;;;;5049218;28;20036;-84
2022/04/14 09:18:45;;;;;;;15.77;7.85;;;;;;;;;;5053353;28;20032;-85
2022/04/14 09:21:12;;;;;;;12.15;7.75;;;;;;;;;;5028741;28;20025;-86
2022/04/14 09:23:39;;;;;;;13.25;8.23;;;;;;;;;;5045412;28;20223;-84
2022/04/14 09:26:11;;;;;;;13.07;8.57;;;;;;;;;;5035875;28;20479;-84
2022/04/14 09:28:38;;;;;;;13.95;7.93;;;;;;;;;;5041288;28;20033;-85
2022/04/14 09:31:05;;;;;;;14.02;8.65;;;;;;;;;;5049526;28;20144;-84
2022/04/14 09:33:32;;;;;;;16.98;9.85;;;;;;;;;;5044985;28;20029;-83
2022/04/14 09:36:05;;;;;;;12.75;9.00;;;;;;;;;;5042739;28;20037;-86
2022/04/14 09:38:48;;;;;;;14.85;8.90;;;;;;;;;;5024128;28;21603;-85
2022/04/14 09:41:30;;;;;;;13.20;9.05;;;;;;;;;;5038275;28;20029;-84
2022/04/14 09:43:57;;;;;;;13.68;9.05;;;;;;;;;;5036871;28;20029;-82
2022/04/14 09:46:23;;;;;;;12.73;8.80;;;;;;;;;;5040058;28;20043;-83
2022/04/14 09:49:19;;;;;;;15.63;9.40;;;;;;;;;;5038699;28;20037;-85
2022/04/14 09:51:45;;;;;;;17.67;10.18;;;;;;;;;;5026650;28;20045;-85
2022/04/14 09:54:13;;;;;;;16.48;11.07;;;;;;;;;;5060782;28;20065;-85
2022/04/14 09:56:53;;;;;;;15.50;9.32;;;;;;;;;;5058783;28;20063;-83
2022/04/14 09:59:20;;;;;;;14.20;8.43;;;;;;;;;;5063970;28;20028;-82
2022/04/14 10:01:48;;;;;;;14.60;9.70;;;;;;;;;;5063706;28;20028;-84
2022/04/14 10:04:30;;;;;;;14.70;9.60;;;;;;;;;;5066652;28;20082;-83
2022/04/14 10:07:02;;;;;;;15.02;10.35;;;;;;;;;;5066817;28;20041;-80
2022/04/14 10:09:30;;;;;;;14.75;9.75;;;;;;;;;;5064197;28;20353;-83
2022/04/14 10:11:56;;;;;;;14.65;9.07;;;;;;;;;;5043685;28;20241;-84
2022/04/14 10:14:25;;;;;;;14.63;10.02;;;;;;;;;;5057484;28;20051;-84
2022/04/14 10:16:52;;;;;;;16.35;9.52;;;;;;;;;;5056056;28;20032;-85
2022/04/14 10:19:19;;;;;;;15.95;8.20;;;;;;;;;;5059118;28;20029;-85
2022/04/14 10:21:45;;;;;;;17.20;8.88;;;;;;;;;;5064373;28;20033;-84
2022/04/14 10:24:14;;;;;;;16.23;9.40;;;;;;;;;;5056822;28;20063;-84
2022/04/14 10:26:41;;;;;;;17.73;9.93;;;;;;;;;;5064095;28;20088;-84
2022/04/14 10:29:08;;;;;;;16.60;10.15;;;;;;;;;;5064590;28;20021;-87
2022/04/14 10:31:37;;;;;;;14.85;10.00;;;;;;;;;;5062311;28;20497;-86
2022/04/14 10:34:04;;;;;;;18.15;10.00;;;;;;;;;;5044568;28;20040;-86
2022/04/14 10:36:37;;;;;;;14.13;9.57;;;;;;;;;;5067945;28;20020;-80
2022/04/14 10:39:04;;;;;;;12.80;9.15;;;;;;;;;;5059649;28;20142;-81
2022/04/14 10:41:32;;;;;;;17.23;9.38;;;;;;;;;;5063926;28;20033;-82
2022/04/14 10:44:02;;;;;;;12.27;7.97;;;;;;;;;;5065863;28;20032;-83
2022/04/14 10:46:32;;;;;;;10.68;7.50;;;;;;;;;;5074733;28;20016;-83
2022/04/14 10:49:15;;;;;;;14.15;8.38;;;;;;;;;;5076678;28;20103;-84
2022/04/14 10:51:41;;;;;;;13.05;8.13;;;;;;;;;;5059859;28;20056;-84
2022/04/14 10:54:11;;;;;;;14.57;8.88;;;;;;;;;;5060464;28;20107;-85
2022/04/14 10:56:37;;;;;;;16.67;8.70;;;;;;;;;;5047041;28;20041;-85
2022/04/14 10:59:26;;;;;;;13.38;8.48;;;;;;;;;;5066968;28;20037;-86
2022/04/14 11:01:52;;;;;;;15.50;8.80;;;;;;;;;;5062197;28;20110;-85
2022/04/14 11:04:23;;;;;;;13.23;9.27;;;;;;;;;;5054483;28;20020;-87
2022/04/14 11:06:51;;;;;;;15.35;10.00;;;;;;;;;;5077096;28;20025;-85
2022/04/14 11:09:43;;;;;;;15.57;10.43;;;;;;;;;;5064801;28;20035;-86
2022/04/14 11:12:12;;;;;;;15.73;9.43;;;;;;;;;;5058041;28;20052;-86
2022/04/14 11:14:59;;;;;;;19.08;10.15;;;;;;;;;;5065282;28;20028;-85
2022/04/14 11:17:37;;;;;;;13.98;8.95;;;;;;;;;;5071133;28;20032;-85
2022/04/14 11:20:12;;;;;;;15.57;8.00;;;;;;;;;;5068074;28;20027;-86
2022/04/14 11:22:57;;;;;;;12.73;7.97;;;;;;;;;;5073097;28;20037;-86
2022/04/14 11:25:41;;;;;;;12.02;7.18;;;;;;;;;;5068866;28;20040;-84
2022/04/14 11:28:19;;;;;;;10.73;7.22;;;;;;;;;;5075528;28;20151;-85
2022/04/14 11:30:46;;;;;;;13.70;7.13;;;;;;;;;;5072014;28;20048;-84
2022/04/14 11:33:21;;;;;;;7.88;6.18;;;;;;;;;;5055563;28;20490;-84
2022/04/14 11:35:47;;;;;;;9.52;6.65;;;;;;;;;;5057232;28;20147;-82
2022/04/14 11:38:32;;;;;;;8.77;6.80;;;;;;;;;;5059156;28;20145;-81
2022/04/14 11:40:58;;;;;;;13.15;7.32;;;;;;;;;;5067306;28;20036;-82
2022/04/14 11:43:24;;;;;;;8.77;6.75;;;;;;;;;;5062561;28;20037;-84
2022/04/14 11:45:51;;;;;;;11.00;7.07;;;;;;;;;;5060249;28;20115;-83
2022/04/14 11:48:17;;;;;;;9.80;6.45;;;;;;;;;;5058665;28;20070;-86
2022/04/14 11:50:43;;;;;;;13.63;8.23;;;;;;;;;;5056165;28;20028;-81
2022/04/14 11:53:09;;;;;;;12.73;8.57;;;;;;;;;;5054858;28;20538;-84
2022/04/14 11:55:36;;;;;;;12.32;8.85;;;;;;;;;;5054620;28;20101;-85
2022/04/14 11:58:12;;;;;;;15.57;7.75;;;;;;;;;;5072771;28;20032;-82
2022/04/14 12:00:45;;;;;;;12.13;6.85;;;;;;;;;;5055504;28;20036;-82
2022/04/14 12:03:12;;;;;;;10.52;7.45;;;;;;;;;;5054111;28;20128;-84
2022/04/14 12:05:40;;;;;;;16.95;8.45;;;;;;;;;;5055030;28;20068;-83
2022/04/14 12:08:07;;;;;;;11.60;8.30;;;;;;;;;;5061718;28;20043;-87
2022/04/14 12:10:33;;;;;;;11.80;9.15;;;;;;;;;;5069100;28;20040;-85
2022/04/14 12:13:09;;;;;;;13.27;10.23;;;;;;;;;;5045199;28;20032;-87
2022/04/14 12:15:35;;;;;;;12.85;9.90;;;;;;;;;;5058274;28;20028;-84
2022/04/14 12:18:09;;;;;;;16.35;10.68;;;;;;;;;;5072591;28;20186;-85
2022/04/14 12:20:40;;;;;;;12.25;9.57;;;;;;;;;;5072430;28;20465;-84
2022/04/14 12:23:09;;;;;;;13.10;9.82;;;;;;;;;;5040094;28;20029;-82
2022/04/14 12:25:36;;;;;;;10.63;8.98;;;;;;;;;;5061082;28;20928;-85
2022/04/14 12:28:03;;;;;;;13.40;9.13;;;;;;;;;;5047728;28;20033;-85
2022/04/14 12:30:30;;;;;;;18.77;10.63;;;;;;;;;;5064433;28;20031;-80
2022/04/14 12:33:03;;;;;;;12.75;10.55;;;;;;;;;;5059904;28;20037;-84
2022/04/14 12:35:33;;;;;;;11.98;8.77;;;;;;;;;;5072191;28;20025;-83
2022/04/14 12:38:18;;;;;;;10.87;8.40;;;;;;;;;;5059652;28;20032;-83
2022/04/14 12:40:54;;;;;;;13.25;8.05;;;;;;;;;;5058763;28;20087;-83
2022/04/14 12:43:23;;;;;;;11.57;9.73;;;;;;;;;;5061796;28;20067;-83
2022/04/14 12:45:50;;;;;;;11.77;7.90;;;;;;;;;;5049386;28;20105;-86
2022/04/14 12:48:26;;;;;;;10.10;9.00;;;;;;;;;;5069274;28;20096;-86
2022/04/14 12:50:55;;;;;;;11.40;9.80;;;;;;;;;;5059172;28;20033;-87
2022/04/14 12:53:25;;;;;;;11.33;9.20;;;;;;;;;;5045304;28;20486;-85
2022/04/14 12:55:52;;;;;;;13.02;8.10;;;;;;;;;;5050020;28;20096;-84
2022/04/14 12:58:18;;;;;;;14.45;8.68;;;;;;;;;;5047580;28;20029;-84
2022/04/14 13:00:44;;;;;;;11.20;6.88;;;;;;;;;;5016405;28;20455;-84
2022/04/14 13:03:17;;;;;;;12.57;6.82;;;;;;;;;;5032222;28;20505;-85
2022/04/14 13:05:44;;;;;;;8.93;6.30;;;;;;;;;;5016626;28;20037;-82
2022/04/14 13:08:10;;;;;;;22.15;7.18;;;;;;;;;;5016341;28;20093;-85
2022/04/14 13:10:40;;;;;;;11.75;6.30;;;;;;;;;;5038069;28;20038;-82
2022/04/14 13:13:07;;;;;;;7.72;6.18;;;;;;;;;;5047002;28;20368;-86
2022/04/14 13:15:34;;;;;;;10.70;6.18;;;;;;;;;;5049139;28;20032;-86
2022/04/14 13:18:01;;;;;;;15.15;6.03;;;;;;;;;;5039979;28;20040;-84
2022/04/14 13:20:37;;;;;;;9.05;6.13;;;;;;;;;;5043434;28;20501;-83
2022/04/14 13:23:05;;;;;;;9.27;6.13;;;;;;;;;;5041740;28;20040;-86
2022/04/14 13:25:31;;;;;;;10.10;6.15;;;;;;;;;;5041303;28;20074;-84
2022/04/14 13:27:57;;;;;;;10.38;5.18;;;;;;;;;;5036408;28;20048;-81
2022/04/14 13:30:24;;;;;;;8.07;5.57;;;;;;;;;;5048549;28;20110;-83
2022/04/14 13:32:50;;;;;;;10.32;6.03;;;;;;;;;;5019739;28;20025;-82
2022/04/14 13:35:16;;;;;;;9.95;6.22;;;;;;;;;;5047659;28;20227;-83
2022/04/14 13:37:43;;;;;;;9.98;5.47;;;;;;;;;;5034055;28;20064;-84
2022/04/14 13:40:12;;;;;;;8.57;4.97;;;;;;;;;;5039697;28;20021;-86
2022/04/14 13:42:38;;;;;;;6.40;4.35;;;;;;;;;;5036574;28;20056;-87
2022/04/14 13:45:07;;;;;;;7.60;3.97;;;;;;;;;;5034243;28;20454;-84
2022/04/14 13:47:33;;;;;;;8.55;3.97;;;;;;;;;;5046114;28;20044;-86
2022/04/14 13:49:59;;;;;;;8.50;4.15;;;;;;;;;;5033976;28;20052;-85
2022/04/14 13:52:25;;;;;;;6.65;4.60;;;;;;;;;;5035920;28;20041;-87
2022/04/14 13:54:52;;;;;;;8.15;4.80;;;;;;;;;;5037981;28;20432;-84
2022/04/14 13:57:21;;;;;;;7.85;3.95;;;;;;;;;;5046605;28;20034;-87
2022/04/14 13:59:48;;;;;;;8.38;4.43;;;;;;;;;;5037162;28;20175;-82
2022/04/14 14:02:14;;;;;;;11.05;4.40;;;;;;;;;;5038307;28;20064;-84
2022/04/14 14:04:40;;;;;;;7.40;5.28;;;;;;;;;;5041888;28;20039;-82
2022/04/14 14:07:06;;;;;;;7.40;4.50;;;;;;;;;;5020726;28;20162;-84
2022/04/14 14:09:32;;;;;;;10.75;4.90;;;;;;;;;;5033737;28;20544;-83
2022/04/14 14:11:58;;;;;;;7.95;4.25;;;;;;;;;;5042472;28;20041;-83
2022/04/14 14:14:25;;;;;;;7.57;4.85;;;;;;;;;;5037169;28;20029;-82
2022/04/14 14:16:51;;;;;;;9.48;4.53;;;;;;;;;;5037163;28;20036;-78
2022/04/14 14:19:17;;;;;;;11.23;4.18;;;;;;;;;;5041453;28;20032;-77
2022/04/14 14:21:44;;;;;;;10.45;4.20;;;;;;;;;;5016157;28;20079;-77
2022/04/14 14:24:10;;;;;;;9.23;4.43;;;;;;;;;;5037572;28;20037;-77
2022/04/14 14:26:36;;;;;;;9.90;5.30;;;;;;;;;;5018278;28;20024;-78